Time;durP1;ratioP1;P1;durP2;ratioP2;P2;SDS_P1;SDS_P2;PMS_P1;PMS_P2;Temp;Humidity;BMP_temperature;BMP_pressure;BME280_temperature;BME280_humidity;BME280_pressure;Samples;Min_cycle;Max_cycle;Signal;HPM_P1;HPM_P2
2023/08/27 00:00:08;;;;;;;30.17;28.37;;;17.40;99.90;;;;;;4934320;29;20464;-71
2023/08/27 00:02:35;;;;;;;30.67;28.47;;;17.50;99.90;;;;;;4933954;29;20457;-71
2023/08/27 00:05:02;;;;;;;29.67;27.90;;;17.60;99.90;;;;;;4933831;29;20523;-71
2023/08/27 00:07:30;;;;;;;30.20;28.13;;;17.60;99.90;;;;;;4934328;29;20453;-71
2023/08/27 00:09:56;;;;;;;30.07;28.37;;;17.70;99.90;;;;;;4934156;29;20449;-71
2023/08/27 00:12:23;;;;;;;30.10;28.20;;;17.80;99.90;;;;;;4934108;29;20457;-71
2023/08/27 00:14:50;;;;;;;29.60;27.20;;;17.80;99.90;;;;;;4933987;29;20492;-71
2023/08/27 00:17:16;;;;;;;32.30;30.03;;;17.80;99.90;;;;;;4933974;29;20472;-71
2023/08/27 00:19:43;;;;;;;29.60;27.77;;;17.90;99.90;;;;;;4934085;29;20453;-72
2023/08/27 00:22:10;;;;;;;29.87;27.70;;;17.80;99.90;;;;;;4933959;29;20450;-71
2023/08/27 00:24:38;;;;;;;28.70;27.00;;;17.70;99.90;;;;;;4933913;29;20449;-71
2023/08/27 00:27:05;;;;;;;31.60;29.60;;;17.60;99.90;;;;;;4933909;29;20446;-71
2023/08/27 00:29:32;;;;;;;30.57;28.20;;;17.70;99.90;;;;;;4933933;29;20453;-71
2023/08/27 00:31:59;;;;;;;29.30;27.20;;;17.70;99.90;;;;;;4933809;29;20482;-71
2023/08/27 00:34:31;;;;;;;31.27;29.27;;;17.70;99.90;;;;;;4933722;29;20497;-71
2023/08/27 00:36:58;;;;;;;30.73;28.60;;;17.70;99.90;;;;;;4933920;29;20450;-71
2023/08/27 00:39:25;;;;;;;31.53;29.43;;;17.80;99.90;;;;;;4933742;29;20509;-72
2023/08/27 00:41:53;;;;;;;35.37;32.23;;;17.90;99.90;;;;;;4933721;29;21171;-72
2023/08/27 00:44:20;;;;;;;35.47;32.73;;;17.90;99.90;;;;;;4933714;29;20454;-72
2023/08/27 00:46:47;;;;;;;34.57;32.27;;;18.00;99.90;;;;;;4933622;29;20441;-71
2023/08/27 00:49:15;;;;;;;34.43;31.80;;;18.00;99.90;;;;;;4933895;29;20462;-71
2023/08/27 00:51:43;;;;;;;34.83;32.20;;;18.10;99.90;;;;;;4933676;29;20456;-71
2023/08/27 00:54:11;;;;;;;34.63;32.13;;;18.20;99.90;;;;;;4933526;29;20496;-71
2023/08/27 00:56:37;;;;;;;36.93;34.20;;;18.20;99.90;;;;;;4933833;28;20437;-71
2023/08/27 00:59:06;;;;;;;34.50;32.10;;;18.30;99.90;;;;;;4933504;29;20473;-71
2023/08/27 01:01:33;;;;;;;38.30;35.20;;;18.30;99.90;;;;;;4933400;29;20449;-71
2023/08/27 01:04:00;;;;;;;37.60;34.87;;;18.40;99.90;;;;;;4933612;29;20464;-71
2023/08/27 01:06:26;;;;;;;35.83;33.30;;;18.50;99.90;;;;;;4933552;29;20856;-71
2023/08/27 01:09:01;;;;;;;37.13;34.27;;;18.40;99.90;;;;;;4933606;29;20458;-71
2023/08/27 01:11:34;;;;;;;35.67;33.17;;;18.40;99.90;;;;;;4933545;29;20455;-71
2023/08/27 01:14:05;;;;;;;33.63;30.97;;;18.40;99.90;;;;;;4933350;29;20489;-71
2023/08/27 01:16:35;;;;;;;32.90;30.50;;;18.40;99.90;;;;;;4937085;29;20457;-71
2023/08/27 01:19:04;;;;;;;29.20;27.17;;;18.40;99.90;;;;;;4937295;29;20461;-71
2023/08/27 01:21:32;;;;;;;31.37;29.37;;;18.40;99.90;;;;;;4937136;29;20936;-71
2023/08/27 01:23:59;;;;;;;30.43;28.33;;;18.30;99.90;;;;;;4937220;29;20476;-71
2023/08/27 01:26:43;;;;;;;30.03;27.80;;;18.40;99.90;;;;;;4937128;29;20453;-71
2023/08/27 01:29:21;;;;;;;29.17;27.37;;;18.50;99.90;;;;;;4937182;29;20460;-71
2023/08/27 01:31:52;;;;;;;29.73;27.90;;;18.50;99.90;;;;;;4936925;29;20481;-71
2023/08/27 01:34:21;;;;;;;30.40;28.30;;;18.60;99.90;;;;;;4936774;29;21022;-71
2023/08/27 01:36:50;;;;;;;31.23;29.13;;;18.60;99.90;;;;;;4936726;29;20504;-71
2023/08/27 01:39:16;;;;;;;27.83;26.10;;;18.60;99.90;;;;;;4936717;29;20453;-71
2023/08/27 01:41:43;;;;;;;27.80;25.50;;;18.60;99.90;;;;;;4936947;29;21069;-71
2023/08/27 01:44:10;;;;;;;29.03;27.10;;;18.60;99.90;;;;;;4936838;29;20468;-71
2023/08/27 01:46:37;;;;;;;29.90;27.80;;;18.60;99.90;;;;;;4936667;29;20453;-70
2023/08/27 01:49:04;;;;;;;28.77;27.00;;;18.70;99.90;;;;;;4936658;29;20453;-71
2023/08/27 01:51:30;;;;;;;30.13;27.90;;;18.70;99.90;;;;;;4944198;28;21186;-71
2023/08/27 01:53:58;;;;;;;26.63;24.97;;;18.80;99.90;;;;;;4936696;29;20490;-72
2023/08/27 01:56:25;;;;;;;29.07;27.10;;;18.80;99.90;;;;;;4945231;28;20457;-71
2023/08/27 01:58:52;;;;;;;29.00;27.00;;;18.80;99.90;;;;;;4955626;28;20456;-71
2023/08/27 02:01:18;;;;;;;30.70;27.97;;;18.80;99.90;;;;;;4955641;28;20440;-71
2023/08/27 02:03:45;;;;;;;28.43;26.63;;;18.80;99.90;;;;;;4955617;28;20448;-71
2023/08/27 02:06:12;;;;;;;30.30;28.30;;;18.60;99.90;;;;;;4955649;28;20452;-71
2023/08/27 02:08:38;;;;;;;28.83;26.83;;;18.60;99.90;;;;;;4955382;28;20459;-71
2023/08/27 02:11:06;;;;;;;29.23;27.23;;;18.70;99.90;;;;;;4955385;28;20445;-71
2023/08/27 02:13:33;;;;;;;31.77;29.63;;;18.70;99.90;;;;;;4955426;28;20471;-71
2023/08/27 02:15:59;;;;;;;31.73;29.43;;;18.70;99.90;;;;;;4955184;28;20504;-70
2023/08/27 02:18:26;;;;;;;30.70;28.20;;;18.70;99.90;;;;;;4955384;28;20480;-71
2023/08/27 02:20:56;;;;;;;30.67;28.73;;;18.60;99.90;;;;;;4950624;28;20462;-71
2023/08/27 02:23:23;;;;;;;32.23;30.13;;;18.60;99.90;;;;;;4944391;29;20960;-71
2023/08/27 02:25:49;;;;;;;31.77;29.73;;;18.70;99.90;;;;;;4947881;28;20449;-71
2023/08/27 02:28:17;;;;;;;31.07;28.97;;;18.70;99.90;;;;;;4947888;28;20461;-71
2023/08/27 02:30:51;;;;;;;29.77;27.97;;;18.70;99.90;;;;;;4935973;29;20496;-71
2023/08/27 02:33:18;;;;;;;28.10;26.30;;;18.80;99.90;;;;;;4935948;29;20457;-71
2023/08/27 02:35:44;;;;;;;30.13;27.83;;;18.80;99.90;;;;;;4935912;29;20496;-71
2023/08/27 02:38:11;;;;;;;28.40;26.70;;;18.70;99.90;;;;;;4935848;29;20453;-71
2023/08/27 02:40:38;;;;;;;29.03;27.03;;;18.70;99.90;;;;;;4935792;29;20457;-70
2023/08/27 02:43:05;;;;;;;29.43;27.23;;;18.70;99.90;;;;;;4935787;29;20464;-70
2023/08/27 02:45:33;;;;;;;28.53;26.70;;;18.80;99.90;;;;;;4935713;29;20450;-70
2023/08/27 02:48:00;;;;;;;27.43;25.67;;;18.70;99.90;;;;;;4935888;29;20449;-70
2023/08/27 02:50:26;;;;;;;26.10;24.50;;;18.80;99.90;;;;;;4935485;29;20996;-71
2023/08/27 02:52:53;;;;;;;26.20;24.47;;;18.80;99.90;;;;;;4940944;29;20460;-71
2023/08/27 02:55:20;;;;;;;25.13;23.53;;;18.70;99.90;;;;;;4952049;28;20492;-71
2023/08/27 02:57:46;;;;;;;28.57;26.47;;;18.80;99.90;;;;;;4935555;29;20464;-71
2023/08/27 03:00:14;;;;;;;26.27;24.17;;;18.80;99.90;;;;;;4949129;29;20453;-71
2023/08/27 03:02:42;;;;;;;29.07;26.13;;;18.80;99.90;;;;;;4954644;28;20445;-71
2023/08/27 03:05:09;;;;;;;26.53;24.80;;;18.80;99.90;;;;;;4954419;28;20456;-71
2023/08/27 03:07:36;;;;;;;28.77;27.10;;;18.80;99.90;;;;;;4954439;28;20452;-71
2023/08/27 03:10:03;;;;;;;31.47;29.60;;;18.60;99.90;;;;;;4954230;28;20448;-71
2023/08/27 03:12:29;;;;;;;32.10;30.10;;;18.60;99.90;;;;;;4954499;28;20966;-71
2023/08/27 03:14:56;;;;;;;32.63;30.57;;;18.50;99.90;;;;;;4954244;28;20855;-71
2023/08/27 03:17:23;;;;;;;33.20;31.10;;;18.40;99.90;;;;;;4954031;28;20469;-71
2023/08/27 03:19:51;;;;;;;33.40;31.20;;;18.30;99.90;;;;;;4954238;28;20455;-71
2023/08/27 03:22:17;;;;;;;35.47;33.33;;;18.20;99.90;;;;;;4954071;28;20456;-72
2023/08/27 03:24:44;;;;;;;37.47;35.00;;;18.10;99.90;;;;;;4954139;28;20452;-69
2023/08/27 03:27:10;;;;;;;37.50;35.10;;;18.10;99.90;;;;;;4954130;28;20448;-70
2023/08/27 03:29:36;;;;;;;42.70;39.70;;;18.00;99.90;;;;;;4945018;28;20501;-69
2023/08/27 03:32:04;;;;;;;41.67;39.17;;;18.00;99.90;;;;;;4934741;29;20588;-69
2023/08/27 03:34:30;;;;;;;41.90;39.47;;;18.00;99.90;;;;;;4934757;29;20500;-69
2023/08/27 03:36:58;;;;;;;40.23;37.87;;;18.00;99.90;;;;;;4934833;29;20446;-69
2023/08/27 03:39:25;;;;;;;42.80;40.00;;;17.90;99.90;;;;;;4934632;29;20453;-70
2023/08/27 03:41:52;;;;;;;43.13;40.33;;;18.00;99.90;;;;;;4934548;29;20840;-70
2023/08/27 03:44:18;;;;;;;43.90;41.30;;;18.00;99.90;;;;;;4934505;29;20457;-70
2023/08/27 03:46:45;;;;;;;44.23;41.40;;;18.00;99.90;;;;;;4934603;29;20449;-70
2023/08/27 03:49:12;;;;;;;44.97;42.23;;;18.00;99.90;;;;;;4934600;29;20468;-70
2023/08/27 03:51:39;;;;;;;46.10;42.83;;;18.00;99.90;;;;;;4934417;29;20446;-70
2023/08/27 03:54:08;;;;;;;46.73;43.43;;;18.00;99.90;;;;;;4934316;29;20450;-70
2023/08/27 03:56:35;;;;;;;48.33;45.50;;;18.10;99.90;;;;;;4934271;29;20449;-73
2023/08/27 03:59:01;;;;;;;48.27;45.17;;;18.10;99.90;;;;;;4934390;29;20450;-70
2023/08/27 04:01:28;;;;;;;47.30;44.33;;;18.00;99.90;;;;;;4934407;29;20449;-70
2023/08/27 04:03:55;;;;;;;49.13;46.10;;;18.00;99.90;;;;;;4934343;29;20449;-72
2023/08/27 04:06:22;;;;;;;46.63;43.73;;;18.00;99.90;;;;;;4934180;29;20972;-71
2023/08/27 04:08:49;;;;;;;47.37;44.47;;;18.00;99.90;;;;;;4934193;29;20454;-71
2023/08/27 04:11:17;;;;;;;49.37;46.27;;;18.00;99.90;;;;;;4944327;28;20457;-71
2023/08/27 04:13:44;;;;;;;50.27;47.17;;;18.00;99.90;;;;;;4944342;28;20461;-70
2023/08/27 04:16:12;;;;;;;51.50;47.63;;;18.00;99.90;;;;;;4937324;28;20508;-71
2023/08/27 04:18:39;;;;;;;47.97;44.93;;;18.00;99.90;;;;;;4940262;28;20500;-70
2023/08/27 04:21:05;;;;;;;51.37;48.07;;;18.10;99.90;;;;;;4941481;28;20463;-70
2023/08/27 04:23:33;;;;;;;52.30;48.80;;;18.00;99.90;;;;;;4941078;29;20456;-70
2023/08/27 04:26:00;;;;;;;51.20;47.90;;;18.00;99.90;;;;;;4937355;28;20513;-70
2023/08/27 04:28:28;;;;;;;51.00;47.90;;;18.00;99.90;;;;;;4933966;29;20461;-70
2023/08/27 04:30:54;;;;;;;50.43;46.73;;;18.10;99.90;;;;;;4936368;28;20492;-70
2023/08/27 04:33:21;;;;;;;50.00;46.93;;;18.00;99.90;;;;;;4938794;28;20464;-70
2023/08/27 04:35:49;;;;;;;50.23;47.03;;;18.00;99.90;;;;;;4936463;28;20511;-70
2023/08/27 04:38:17;;;;;;;47.83;44.73;;;17.90;99.90;;;;;;4936590;28;20463;-70
2023/08/27 04:40:43;;;;;;;49.37;46.20;;;17.90;99.90;;;;;;4936937;28;20601;-71
2023/08/27 04:43:10;;;;;;;49.60;46.60;;;17.80;99.90;;;;;;4938863;29;20457;-71
2023/08/27 04:45:40;;;;;;;48.37;45.27;;;17.90;99.90;;;;;;4948993;29;20453;-70
2023/08/27 04:48:08;;;;;;;49.20;46.20;;;17.80;99.90;;;;;;4933561;29;20460;-71
2023/08/27 04:50:35;;;;;;;47.83;44.80;;;17.90;99.90;;;;;;4947278;28;20523;-71
2023/08/27 04:53:02;;;;;;;49.80;46.60;;;17.90;99.90;;;;;;4952717;28;20456;-71
2023/08/27 04:55:28;;;;;;;49.17;46.17;;;17.90;99.90;;;;;;4945937;28;20494;-71
2023/08/27 04:57:55;;;;;;;49.90;46.90;;;18.10;99.90;;;;;;4937472;28;20473;-71
2023/08/27 05:00:22;;;;;;;48.93;45.73;;;18.10;99.90;;;;;;4930673;29;20445;-70
2023/08/27 05:02:51;;;;;;;52.10;48.70;;;18.20;99.90;;;;;;4934352;29;20798;-70
2023/08/27 05:05:18;;;;;;;52.20;49.10;;;18.30;99.90;;;;;;4935710;28;20446;-70
2023/08/27 05:07:45;;;;;;;54.47;51.17;;;18.30;99.90;;;;;;4935799;29;20444;-71
2023/08/27 05:10:11;;;;;;;53.23;49.80;;;18.30;99.90;;;;;;4935124;29;20434;-71
2023/08/27 05:12:38;;;;;;;56.37;53.00;;;18.30;99.90;;;;;;4941285;29;20457;-72
2023/08/27 05:15:06;;;;;;;55.27;51.87;;;18.30;99.90;;;;;;4941042;28;20488;-71
2023/08/27 05:17:33;;;;;;;57.40;53.80;;;18.40;99.90;;;;;;4939840;28;20505;-71
2023/08/27 05:20:04;;;;;;;56.33;52.73;;;18.40;99.90;;;;;;4952252;28;20453;-72
2023/08/27 05:22:30;;;;;;;55.87;52.07;;;18.50;99.90;;;;;;4952714;28;20550;-71
2023/08/27 05:24:57;;;;;;;56.23;52.67;;;18.50;99.90;;;;;;4948981;28;20453;-71
2023/08/27 05:27:24;;;;;;;57.27;53.57;;;18.60;99.90;;;;;;4933341;29;21083;-71
2023/08/27 05:29:50;;;;;;;55.07;51.70;;;18.60;99.90;;;;;;4932962;29;20461;-71
2023/08/27 05:32:17;;;;;;;54.90;51.70;;;18.50;99.90;;;;;;4944269;28;20465;-71
2023/08/27 05:34:44;;;;;;;54.80;51.50;;;18.40;99.90;;;;;;4939182;28;21069;-71
2023/08/27 05:37:12;;;;;;;53.70;50.60;;;18.40;99.90;;;;;;4951271;28;20459;-71
2023/08/27 05:39:39;;;;;;;53.13;49.83;;;18.50;99.90;;;;;;4952146;28;20458;-71
2023/08/27 05:42:05;;;;;;;50.27;47.27;;;18.50;99.90;;;;;;4952255;28;20507;-71
2023/08/27 05:44:32;;;;;;;51.77;48.60;;;18.50;99.90;;;;;;4952182;28;20511;-71
2023/08/27 05:46:59;;;;;;;52.50;49.17;;;18.50;99.90;;;;;;4952291;28;20974;-70
2023/08/27 05:49:26;;;;;;;53.87;50.67;;;18.50;99.90;;;;;;4952378;28;20456;-70
2023/08/27 05:51:52;;;;;;;54.20;50.90;;;18.50;99.90;;;;;;4952274;28;20460;-71
2023/08/27 05:54:20;;;;;;;55.43;52.10;;;18.40;99.90;;;;;;4952047;28;20456;-70
2023/08/27 05:56:48;;;;;;;54.30;50.80;;;18.50;99.90;;;;;;4952092;28;20846;-70
2023/08/27 05:59:15;;;;;;;54.50;51.27;;;18.60;99.90;;;;;;4952210;28;20448;-71
2023/08/27 06:01:42;;;;;;;54.57;51.03;;;18.70;99.90;;;;;;4953038;28;20445;-71
2023/08/27 06:04:08;;;;;;;52.23;49.33;;;18.70;99.90;;;;;;4950652;28;20536;-71
2023/08/27 06:06:36;;;;;;;52.63;49.70;;;18.70;99.90;;;;;;4955691;28;20460;-72
2023/08/27 06:09:03;;;;;;;53.90;50.90;;;18.60;99.90;;;;;;4955421;28;20460;-71
2023/08/27 06:11:31;;;;;;;50.57;47.80;;;18.60;99.90;;;;;;4955584;28;20445;-71
2023/08/27 06:13:59;;;;;;;49.93;47.03;;;18.60;99.90;;;;;;4955562;28;20960;-71
2023/08/27 06:16:25;;;;;;;51.43;48.53;;;18.60;99.90;;;;;;4955465;28;20538;-72
2023/08/27 06:18:52;;;;;;;48.33;45.63;;;18.40;99.90;;;;;;4955395;28;20475;-71
2023/08/27 06:21:19;;;;;;;48.00;45.30;;;18.60;99.90;;;;;;4955193;28;20449;-71
2023/08/27 06:23:46;;;;;;;49.33;46.63;;;18.70;99.90;;;;;;4955397;28;20449;-72
2023/08/27 06:26:13;;;;;;;47.43;45.03;;;18.80;99.90;;;;;;4955292;28;20459;-71
2023/08/27 06:28:41;;;;;;;46.23;43.83;;;18.80;99.90;;;;;;4955207;28;20455;-71
2023/08/27 06:31:07;;;;;;;44.60;42.30;;;18.90;99.90;;;;;;4954923;28;20835;-72
2023/08/27 06:33:34;;;;;;;43.37;41.07;;;19.00;99.90;;;;;;4955000;28;20452;-71
2023/08/27 06:36:01;;;;;;;40.80;38.80;;;19.00;99.90;;;;;;4954913;28;20499;-71
2023/08/27 06:38:27;;;;;;;38.80;36.90;;;19.00;99.90;;;;;;4955107;28;20461;-72
2023/08/27 06:40:54;;;;;;;35.43;33.60;;;19.00;99.90;;;;;;4955021;28;20453;-72
2023/08/27 06:43:21;;;;;;;33.67;32.03;;;19.10;99.90;;;;;;4952437;28;20444;-71
2023/08/27 06:45:49;;;;;;;31.07;29.57;;;19.20;99.90;;;;;;4943917;28;20944;-72
2023/08/27 06:48:16;;;;;;;28.07;26.80;;;19.30;99.90;;;;;;4947494;28;20453;-72
2023/08/27 06:50:43;;;;;;;25.23;23.90;;;19.20;99.90;;;;;;4935810;29;20996;-71
2023/08/27 06:53:11;;;;;;;23.70;22.50;;;19.10;99.90;;;;;;4935661;29;20449;-71
2023/08/27 06:55:37;;;;;;;22.20;21.10;;;19.10;99.90;;;;;;4935534;29;20497;-71
2023/08/27 06:58:04;;;;;;;21.47;20.47;;;19.10;99.90;;;;;;4945738;29;20461;-71
2023/08/27 07:00:31;;;;;;;18.80;18.00;;;19.20;99.90;;;;;;4954798;28;20455;-70
2023/08/27 07:02:59;;;;;;;16.10;15.40;;;19.20;99.90;;;;;;4949683;28;20472;-71
2023/08/27 07:05:26;;;;;;;16.43;15.63;;;19.20;99.90;;;;;;4954599;28;20449;-71
2023/08/27 07:07:53;;;;;;;16.40;15.50;;;19.30;99.90;;;;;;4954379;28;20815;-71
2023/08/27 07:10:21;;;;;;;15.90;15.00;;;19.30;99.90;;;;;;4954424;28;21038;-72
2023/08/27 07:12:47;;;;;;;15.40;14.77;;;19.40;99.90;;;;;;4953952;28;20848;-71
2023/08/27 07:15:14;;;;;;;16.83;15.87;;;19.50;99.90;;;;;;4954291;28;20445;-72
2023/08/27 07:17:41;;;;;;;16.63;15.83;;;19.60;99.90;;;;;;4953806;28;20465;-73
2023/08/27 07:20:11;;;;;;;16.57;15.57;;;19.60;99.90;;;;;;4945759;28;20537;-74
2023/08/27 07:22:37;;;;;;;15.37;14.70;;;19.60;99.90;;;;;;4941440;28;20465;-75
2023/08/27 07:25:06;;;;;;;15.03;14.33;;;19.60;99.90;;;;;;4941416;28;20983;-74
2023/08/27 07:27:33;;;;;;;16.10;15.40;;;19.80;99.90;;;;;;4938098;29;20496;-73
2023/08/27 07:30:00;;;;;;;14.27;13.60;;;19.80;99.90;;;;;;4940145;28;20457;-75
2023/08/27 07:32:27;;;;;;;15.10;14.53;;;19.90;99.90;;;;;;4942550;29;20463;-74
2023/08/27 07:34:53;;;;;;;15.07;14.47;;;19.90;99.90;;;;;;4947747;28;20463;-74
2023/08/27 07:37:21;;;;;;;14.50;13.90;;;20.00;99.90;;;;;;4949476;28;20847;-73
2023/08/27 07:39:49;;;;;;;14.27;13.77;;;20.20;99.90;;;;;;4942696;28;20465;-73
2023/08/27 07:42:16;;;;;;;14.10;13.50;;;20.50;99.90;;;;;;4945450;28;20468;-73
2023/08/27 07:44:42;;;;;;;13.20;12.70;;;20.50;99.90;;;;;;4939631;28;20460;-73
2023/08/27 07:47:09;;;;;;;14.30;13.47;;;20.50;99.90;;;;;;4945952;28;20813;-73
2023/08/27 07:49:36;;;;;;;13.87;13.37;;;20.60;99.90;;;;;;4942741;28;20460;-73
2023/08/27 07:52:03;;;;;;;14.33;13.70;;;20.60;99.90;;;;;;4940633;29;20458;-74
2023/08/27 07:54:31;;;;;;;13.60;13.10;;;20.50;99.90;;;;;;4947420;28;20488;-74
2023/08/27 07:56:57;;;;;;;13.93;13.43;;;20.30;99.90;;;;;;4941044;28;20501;-74
2023/08/27 07:59:24;;;;;;;13.97;13.47;;;20.30;99.90;;;;;;4944869;28;20452;-73
2023/08/27 08:01:51;;;;;;;14.70;14.00;;;20.40;99.90;;;;;;4946124;28;20460;-74
2023/08/27 08:04:17;;;;;;;14.33;13.83;;;20.50;99.90;;;;;;4934219;29;20485;-73
2023/08/27 08:06:44;;;;;;;15.47;14.77;;;20.60;99.90;;;;;;4948060;28;20463;-73
2023/08/27 08:09:11;;;;;;;14.87;14.27;;;20.50;99.90;;;;;;4937607;28;20454;-73
2023/08/27 08:11:39;;;;;;;14.90;14.30;;;20.40;99.90;;;;;;4933644;29;20473;-74
2023/08/27 08:14:05;;;;;;;15.27;14.50;;;20.50;99.90;;;;;;4933727;29;20514;-74
2023/08/27 08:16:32;;;;;;;14.30;13.80;;;20.40;99.90;;;;;;4933487;29;20491;-74
2023/08/27 08:18:59;;;;;;;14.37;13.73;;;20.30;99.90;;;;;;4933714;29;20442;-74
2023/08/27 08:21:26;;;;;;;14.13;13.63;;;20.30;99.90;;;;;;4933521;29;20448;-74
2023/08/27 08:23:52;;;;;;;13.80;13.30;;;20.30;99.90;;;;;;4933094;29;20461;-74
2023/08/27 08:26:19;;;;;;;14.17;13.67;;;20.20;99.90;;;;;;4933078;29;20441;-72
2023/08/27 08:28:48;;;;;;;13.83;13.33;;;20.30;99.90;;;;;;4933548;29;20430;-73
2023/08/27 08:31:14;;;;;;;14.43;13.80;;;20.40;99.90;;;;;;4933345;29;20487;-73
2023/08/27 08:33:41;;;;;;;14.17;13.63;;;20.50;99.90;;;;;;4933408;29;20456;-73
2023/08/27 08:36:08;;;;;;;13.40;12.80;;;20.60;99.90;;;;;;4933154;29;20485;-72
2023/08/27 08:38:34;;;;;;;13.10;12.60;;;20.50;99.90;;;;;;4933203;29;20595;-73
2023/08/27 08:41:04;;;;;;;12.70;12.20;;;20.50;99.90;;;;;;4933199;29;20442;-72
2023/08/27 08:43:39;;;;;;;14.07;13.30;;;20.50;99.90;;;;;;4933418;29;20450;-73
2023/08/27 08:46:08;;;;;;;12.80;12.20;;;20.50;99.90;;;;;;4930970;29;20936;-73
2023/08/27 08:48:39;;;;;;;12.93;12.43;;;20.60;99.90;;;;;;4933143;29;20897;-73
2023/08/27 08:51:07;;;;;;;12.47;12.00;;;20.70;99.90;;;;;;4930991;29;20438;-73
2023/08/27 08:53:37;;;;;;;13.77;13.00;;;20.60;99.90;;;;;;4933131;29;20453;-74
2023/08/27 08:56:07;;;;;;;12.60;12.10;;;20.80;99.90;;;;;;4930379;29;20481;-74
2023/08/27 08:58:36;;;;;;;12.03;11.63;;;21.10;99.90;;;;;;4932904;29;20453;-73
2023/08/27 09:01:03;;;;;;;12.70;12.10;;;21.60;99.90;;;;;;4932985;29;20953;-73
2023/08/27 09:03:32;;;;;;;11.50;11.10;;;22.20;99.90;;;;;;4928174;29;20504;-73
2023/08/27 09:06:00;;;;;;;11.27;10.87;;;22.50;99.90;;;;;;4933136;29;20442;-73
2023/08/27 09:08:29;;;;;;;11.27;10.87;;;22.70;99.90;;;;;;4932704;29;20449;-74
2023/08/27 09:10:57;;;;;;;12.30;11.90;;;22.70;99.90;;;;;;4933165;29;20450;-73
2023/08/27 09:13:24;;;;;;;11.90;11.47;;;22.60;99.90;;;;;;4930394;29;20449;-74
2023/08/27 09:15:51;;;;;;;11.33;10.93;;;22.70;99.90;;;;;;4932834;29;20442;-73
2023/08/27 09:18:18;;;;;;;12.40;12.00;;;22.90;99.90;;;;;;4932692;29;20472;-73
2023/08/27 09:20:46;;;;;;;12.40;11.90;;;22.70;99.90;;;;;;4930474;29;20444;-73
2023/08/27 09:23:13;;;;;;;12.33;11.83;;;22.80;99.90;;;;;;4932845;29;20453;-73
2023/08/27 09:25:40;;;;;;;11.83;11.43;;;23.00;99.90;;;;;;4932895;29;20815;-73
2023/08/27 09:28:07;;;;;;;12.57;12.00;;;22.70;99.90;;;;;;4932788;29;20457;-73
2023/08/27 09:30:33;;;;;;;12.70;12.20;;;22.80;99.90;;;;;;4932532;29;20465;-73
2023/08/27 09:33:01;;;;;;;12.20;11.80;;;22.70;99.90;;;;;;4932675;29;20449;-73
2023/08/27 09:35:37;;;;;;;11.70;11.20;;;22.80;99.90;;;;;;4933407;29;20445;-73
2023/08/27 09:38:06;;;;;;;11.83;11.20;;;23.00;99.90;;;;;;4933883;29;20540;-73
2023/08/27 09:40:33;;;;;;;12.00;11.20;;;23.60;99.90;;;;;;4936454;29;20449;-72
2023/08/27 09:43:05;;;;;;;11.90;11.37;;;24.00;99.90;;;;;;4936300;29;20448;-74
2023/08/27 09:45:32;;;;;;;11.33;10.93;;;24.20;99.90;;;;;;4936534;29;20450;-73
2023/08/27 09:47:59;;;;;;;11.10;10.70;;;24.30;99.90;;;;;;4936510;29;20448;-74
2023/08/27 09:50:28;;;;;;;11.67;11.27;;;24.50;99.90;;;;;;4936865;29;21000;-74
2023/08/27 09:53:04;;;;;;;11.03;10.60;;;24.50;99.90;;;;;;4943809;28;20841;-74
2023/08/27 09:55:34;;;;;;;11.37;10.87;;;24.70;99.90;;;;;;4949663;28;20448;-73
2023/08/27 09:58:02;;;;;;;11.37;10.83;;;25.20;99.90;;;;;;4932570;28;20490;-73
2023/08/27 10:00:29;;;;;;;11.10;10.50;;;25.60;99.90;;;;;;4947449;28;20464;-73
2023/08/27 10:02:57;;;;;;;11.40;10.93;;;26.00;99.90;;;;;;4945453;28;20461;-74
2023/08/27 10:05:28;;;;;;;12.50;11.70;;;26.10;99.90;;;;;;4941688;29;20504;-74
2023/08/27 10:07:59;;;;;;;11.20;10.70;;;26.40;99.90;;;;;;4938398;29;20500;-74
2023/08/27 10:10:27;;;;;;;11.47;10.90;;;26.60;99.90;;;;;;4941040;28;20457;-74
2023/08/27 10:12:56;;;;;;;11.60;11.20;;;26.70;99.90;;;;;;4947193;28;20938;-74
2023/08/27 10:15:23;;;;;;;11.53;11.13;;;26.70;99.90;;;;;;4946398;28;20464;-74
2023/08/27 10:17:53;;;;;;;11.27;10.80;;;26.90;99.90;;;;;;4939434;29;20819;-74
2023/08/27 10:20:20;;;;;;;11.30;10.90;;;27.00;99.90;;;;;;4947804;28;20457;-74
2023/08/27 10:22:48;;;;;;;11.70;11.10;;;27.00;99.90;;;;;;4944192;28;20467;-74
2023/08/27 10:25:17;;;;;;;11.70;11.20;;;26.90;99.90;;;;;;4946508;28;20469;-74
2023/08/27 10:27:46;;;;;;;10.97;10.57;;;27.10;99.90;;;;;;4927920;29;20465;-74
2023/08/27 10:30:16;;;;;;;12.30;11.37;;;27.20;99.90;;;;;;4928990;28;20489;-74
2023/08/27 10:32:42;;;;;;;12.40;11.90;;;26.90;99.90;;;;;;4928721;28;20487;-74
2023/08/27 10:35:10;;;;;;;12.60;12.10;;;26.70;99.90;;;;;;4949174;28;20470;-74
2023/08/27 10:37:39;;;;;;;11.93;11.50;;;26.20;99.90;;;;;;4935193;29;20485;-73
2023/08/27 10:40:08;;;;;;;11.10;10.70;;;26.20;99.90;;;;;;4935195;29;20458;-73
2023/08/27 10:42:37;;;;;;;11.23;10.73;;;26.80;99.90;;;;;;4935575;28;20464;-73
2023/08/27 10:45:16;;;;;;;11.83;11.33;;;27.20;99.90;;;;;;4945012;28;20452;-73
2023/08/27 10:47:44;;;;;;;10.80;10.40;;;27.70;99.60;;;;;;4942845;28;20453;-73
2023/08/27 10:50:21;;;;;;;10.30;10.00;;;27.60;98.70;;;;;;4935158;29;20977;-73
2023/08/27 10:52:51;;;;;;;11.17;10.67;;;27.80;98.50;;;;;;4937123;29;20954;-73
2023/08/27 10:55:22;;;;;;;11.67;11.10;;;28.10;98.10;;;;;;4935152;29;20747;-73
2023/08/27 10:57:48;;;;;;;11.83;11.10;;;28.00;97.50;;;;;;4934986;29;20573;-73
2023/08/27 11:00:17;;;;;;;11.50;11.10;;;27.60;98.80;;;;;;4935131;29;20449;-73
2023/08/27 11:02:59;;;;;;;11.67;11.27;;;27.30;99.10;;;;;;4935153;29;20936;-74
2023/08/27 11:05:29;;;;;;;11.53;11.03;;;27.20;98.60;;;;;;4933726;29;20468;-73
2023/08/27 11:07:59;;;;;;;11.90;11.30;;;27.00;98.90;;;;;;4935178;29;20450;-73
2023/08/27 11:10:31;;;;;;;11.73;11.13;;;26.50;99.60;;;;;;4935253;29;20990;-74
2023/08/27 11:12:58;;;;;;;12.53;12.00;;;26.10;99.90;;;;;;4940855;29;20484;-73
2023/08/27 11:15:31;;;;;;;12.00;11.60;;;26.10;99.90;;;;;;4946082;28;20514;-73
2023/08/27 11:17:59;;;;;;;12.67;12.03;;;25.90;99.90;;;;;;4946001;28;20508;-73
2023/08/27 11:20:27;;;;;;;12.53;11.80;;;25.50;99.90;;;;;;4952520;28;20476;-74
2023/08/27 11:22:58;;;;;;;12.13;11.43;;;25.30;99.90;;;;;;4937037;28;20454;-73
2023/08/27 11:25:27;;;;;;;12.07;11.47;;;25.30;99.90;;;;;;4935077;29;20458;-73
2023/08/27 11:27:54;;;;;;;10.60;10.30;;;25.80;99.90;;;;;;4935117;29;20450;-73
2023/08/27 11:30:25;;;;;;;11.43;10.93;;;26.20;99.90;;;;;;4934607;29;20482;-73
2023/08/27 11:32:54;;;;;;;11.50;10.90;;;26.50;99.80;;;;;;4935081;29;20448;-73
2023/08/27 11:35:25;;;;;;;11.10;10.70;;;26.70;99.40;;;;;;4934949;29;20450;-74
2023/08/27 11:37:52;;;;;;;11.77;11.17;;;26.90;96.60;;;;;;4934828;29;20490;-73
2023/08/27 11:40:19;;;;;;;11.83;11.23;;;26.70;97.20;;;;;;4934718;29;20448;-73
2023/08/27 11:42:50;;;;;;;12.10;11.60;;;26.50;97.00;;;;;;4929895;29;20956;-73
2023/08/27 11:45:17;;;;;;;11.97;11.47;;;26.70;97.60;;;;;;4934815;29;20512;-73
2023/08/27 11:47:44;;;;;;;12.77;12.27;;;26.60;96.60;;;;;;4934957;29;20454;-73
2023/08/27 11:50:13;;;;;;;11.60;11.10;;;26.50;97.30;;;;;;4942765;28;20474;-73
2023/08/27 11:52:40;;;;;;;12.00;11.50;;;26.50;97.30;;;;;;4944193;28;20457;-73
2023/08/27 11:55:08;;;;;;;13.27;12.37;;;26.30;97.80;;;;;;4951917;28;20458;-72
2023/08/27 11:57:35;;;;;;;12.63;12.03;;;25.90;98.30;;;;;;4941242;28;20488;-72
2023/08/27 12:00:10;;;;;;;12.30;11.70;;;25.90;99.70;;;;;;4946464;28;20812;-72
2023/08/27 12:02:38;;;;;;;12.93;12.23;;;25.90;99.90;;;;;;4939746;28;20889;-72
2023/08/27 12:05:06;;;;;;;12.27;11.83;;;25.50;99.90;;;;;;4935400;28;20456;-73
2023/08/27 12:07:36;;;;;;;13.37;12.77;;;25.60;99.90;;;;;;4944576;28;20445;-73
2023/08/27 12:10:07;;;;;;;13.10;12.20;;;25.40;99.90;;;;;;4939174;29;20460;-72
2023/08/27 12:12:36;;;;;;;12.43;11.93;;;25.30;99.90;;;;;;4945632;28;20465;-73
2023/08/27 12:15:04;;;;;;;12.30;11.90;;;25.10;99.90;;;;;;4942456;28;20884;-72
2023/08/27 12:17:34;;;;;;;12.40;11.50;;;24.80;99.90;;;;;;4942248;28;20528;-73
2023/08/27 12:20:03;;;;;;;13.17;12.57;;;24.90;99.90;;;;;;4941979;28;20460;-73
2023/08/27 12:22:30;;;;;;;12.10;11.60;;;25.00;99.90;;;;;;4945636;28;20492;-72
2023/08/27 12:25:01;;;;;;;13.50;12.80;;;25.10;99.90;;;;;;4939235;28;20516;-73
2023/08/27 12:27:29;;;;;;;13.30;12.77;;;25.00;99.90;;;;;;4942301;29;20512;-72
2023/08/27 12:29:55;;;;;;;13.43;12.83;;;24.90;99.90;;;;;;4946707;28;20827;-72